createdAt,value
2022-12-03T00:01:25.232Z,6.94
2022-12-03T00:03:54.853Z,6.90
2022-12-03T00:06:22.566Z,6.92
2022-12-03T00:08:50.307Z,6.94
2022-12-03T00:11:17.926Z,6.91
2022-12-03T00:13:45.712Z,6.91
2022-12-03T00:16:13.399Z,6.86
2022-12-03T00:18:41.167Z,6.90
2022-12-03T00:21:10.093Z,6.90
2022-12-03T00:23:42.010Z,6.89
2022-12-03T00:26:10.122Z,6.89
2022-12-03T00:28:37.722Z,6.88
2022-12-03T00:31:05.732Z,6.89
2022-12-03T00:33:33.321Z,6.92
2022-12-03T00:36:01.085Z,6.94
2022-12-03T00:38:30.042Z,6.90
2022-12-03T00:40:57.718Z,6.90
2022-12-03T00:43:25.286Z,6.91
2022-12-03T00:45:53.084Z,6.91
2022-12-03T00:48:20.726Z,6.87
2022-12-03T00:50:49.513Z,6.82
2022-12-03T00:53:17.194Z,6.83
2022-12-03T00:55:46.291Z,6.81
2022-12-03T00:58:13.898Z,6.61
2022-12-03T01:00:41.661Z,6.89
2022-12-03T01:03:09.241Z,6.94
2022-12-03T01:05:36.981Z,6.93
2022-12-03T01:08:04.678Z,6.89
2022-12-03T01:10:32.423Z,6.93
2022-12-03T01:13:01.352Z,6.91
2022-12-03T01:15:29.089Z,6.88
2022-12-03T01:17:56.676Z,6.89
2022-12-03T01:20:24.404Z,6.92
2022-12-03T01:22:52.193Z,6.95
2022-12-03T01:25:19.983Z,6.95
2022-12-03T01:27:47.588Z,6.95
2022-12-03T01:30:18.553Z,6.92
2022-12-03T01:32:45.156Z,6.95
2022-12-03T01:35:12.916Z,6.93
2022-12-03T01:37:40.906Z,6.86
2022-12-03T01:40:09.587Z,6.80
2022-12-03T01:42:39.785Z,6.86
2022-12-03T01:45:11.834Z,6.68
2022-12-03T01:47:41.281Z,6.83
2022-12-03T01:50:12.840Z,6.77
2022-12-03T01:52:40.460Z,6.85
2022-12-03T01:55:12.411Z,6.87
2022-12-03T01:57:41.524Z,6.89
2022-12-03T02:00:13.649Z,6.89
2022-12-03T02:02:43.420Z,6.89
2022-12-03T02:05:18.730Z,6.90
2022-12-03T02:07:48.060Z,6.88
2022-12-03T02:10:17.685Z,6.88
2022-12-03T02:12:47.551Z,6.91
2022-12-03T02:15:15.275Z,6.93
2022-12-03T02:17:44.294Z,6.68
2022-12-03T02:20:12.748Z,6.93
2022-12-03T02:22:53.555Z,6.59
2022-12-03T02:25:23.548Z,6.83
2022-12-03T02:27:51.489Z,6.60
2022-12-03T02:30:21.529Z,6.89
2022-12-03T02:32:49.339Z,6.97
2022-12-03T02:35:17.287Z,6.98
2022-12-03T02:37:45.127Z,7.00
2022-12-03T02:40:14.621Z,6.93
2022-12-03T02:42:44.820Z,6.94
2022-12-03T02:45:17.678Z,6.91
2022-12-03T02:47:46.158Z,6.95
2022-12-03T02:50:16.907Z,6.93
2022-12-03T02:52:45.269Z,6.91
2022-12-03T02:55:12.872Z,6.91
2022-12-03T02:57:40.590Z,6.89
2022-12-03T03:00:10.950Z,6.90
2022-12-03T03:02:38.926Z,6.89
2022-12-03T03:05:07.774Z,6.92
2022-12-03T03:07:35.639Z,6.61
2022-12-03T03:10:03.650Z,6.57
2022-12-03T03:12:34.816Z,6.90
2022-12-03T03:15:07.670Z,6.94
2022-12-03T03:17:37.684Z,6.93
2022-12-03T03:20:06.329Z,6.90
2022-12-03T03:22:34.417Z,6.89
2022-12-03T03:25:02.100Z,6.93
2022-12-03T03:27:29.727Z,6.98
2022-12-03T03:29:57.463Z,6.75
2022-12-03T03:32:25.096Z,6.99
2022-12-03T03:34:54.448Z,6.92
2022-12-03T03:37:22.283Z,6.87
2022-12-03T03:39:50.015Z,6.91
2022-12-03T03:42:17.659Z,6.95
2022-12-03T03:44:45.366Z,6.95
2022-12-03T03:47:13.096Z,6.90
2022-12-03T03:49:40.883Z,6.91
2022-12-03T03:52:11.701Z,6.67
2022-12-03T03:54:39.503Z,6.84
2022-12-03T03:57:07.184Z,6.79
2022-12-03T03:59:34.899Z,6.75
2022-12-03T04:02:02.542Z,6.74
2022-12-03T04:04:31.758Z,6.44
2022-12-03T04:06:59.562Z,6.70
2022-12-03T04:09:28.694Z,6.69
2022-12-03T04:12:13.749Z,6.59
2022-12-03T04:14:41.343Z,6.60
2022-12-03T04:17:10.052Z,6.60
2022-12-03T04:19:37.640Z,6.53
2022-12-03T04:22:19.293Z,6.57
2022-12-03T04:24:48.250Z,6.51
2022-12-03T04:27:33.422Z,6.48
2022-12-03T04:30:01.225Z,6.29
2022-12-03T04:32:46.690Z,6.40
2022-12-03T04:35:46.957Z,6.35
2022-12-03T04:38:15.819Z,6.42
2022-12-03T04:41:04.120Z,6.35
2022-12-03T04:43:33.068Z,6.38
2022-12-03T04:46:00.804Z,6.44
2022-12-03T04:48:28.687Z,6.41
2022-12-03T04:50:56.277Z,6.46
2022-12-03T04:53:25.020Z,6.46
2022-12-03T04:55:54.007Z,6.47
2022-12-03T04:58:21.829Z,6.50
2022-12-03T05:00:49.472Z,6.51
2022-12-03T05:03:17.232Z,6.50
2022-12-03T05:05:44.868Z,6.50
2022-12-03T05:08:13.622Z,6.56
2022-12-03T05:10:41.295Z,6.50
2022-12-03T05:13:11.401Z,6.51
2022-12-03T05:15:39.006Z,6.56
2022-12-03T05:18:06.683Z,6.53
2022-12-03T05:20:42.095Z,6.56
2022-12-03T05:23:09.846Z,6.49
2022-12-03T05:25:37.545Z,6.47
2022-12-03T05:28:05.882Z,6.53
2022-12-03T05:30:35.117Z,6.54
2022-12-03T05:33:02.931Z,5.51
2022-12-03T05:35:30.597Z,5.30
2022-12-03T05:37:58.360Z,5.27
2022-12-03T05:40:26.115Z,6.49
2022-12-03T05:42:56.985Z,5.57
2022-12-03T05:45:26.204Z,6.06
2022-12-03T05:47:55.493Z,5.07
2022-12-03T05:50:23.892Z,5.54
2022-12-03T05:52:51.640Z,5.87
2022-12-03T05:55:19.687Z,5.09
2022-12-03T05:57:47.410Z,5.14
2022-12-03T06:00:16.898Z,6.04
2022-12-03T06:02:44.599Z,5.68
2022-12-03T06:05:14.232Z,6.46
2022-12-03T06:07:41.964Z,5.38
2022-12-03T06:10:11.217Z,5.10
2022-12-03T06:12:38.960Z,5.62
2022-12-03T06:15:07.990Z,6.01
2022-12-03T06:17:35.738Z,5.82
2022-12-03T06:20:03.598Z,5.18
2022-12-03T06:22:32.937Z,5.80
2022-12-03T06:25:06.206Z,5.44
2022-12-03T06:27:34.982Z,5.52
2022-12-03T06:30:02.941Z,5.77
2022-12-03T06:32:30.834Z,6.39
2022-12-03T06:34:58.623Z,5.24
2022-12-03T06:37:26.272Z,4.52
2022-12-03T06:39:55.431Z,5.78
2022-12-03T06:42:23.223Z,5.54
2022-12-03T06:44:51.417Z,5.36
2022-12-03T06:47:19.384Z,5.92
2022-12-03T06:49:47.132Z,6.05
2022-12-03T06:52:14.823Z,4.19
2022-12-03T06:54:42.518Z,5.65
2022-12-03T06:57:11.533Z,5.72
2022-12-03T06:59:39.257Z,6.35
2022-12-03T07:02:07.037Z,5.08
2022-12-03T07:04:34.941Z,4.96
2022-12-03T07:07:02.762Z,6.27
2022-12-03T07:09:31.127Z,5.63
2022-12-03T07:11:58.822Z,4.34
2022-12-03T07:14:27.870Z,5.91
2022-12-03T07:16:55.723Z,4.69
2022-12-03T07:19:27.579Z,4.76
2022-12-03T07:21:58.497Z,5.68
2022-12-03T07:24:38.422Z,6.30
2022-12-03T07:27:06.192Z,6.33
2022-12-03T07:29:35.327Z,4.49
2022-12-03T07:32:02.978Z,4.33
2022-12-03T07:34:30.804Z,3.95
2022-12-03T07:36:58.494Z,4.68
2022-12-03T07:39:26.225Z,6.32
2022-12-03T07:41:57.069Z,6.34
2022-12-03T07:44:24.884Z,4.97
2022-12-03T07:46:54.123Z,6.28
2022-12-03T07:49:21.881Z,5.34
2022-12-03T07:51:54.214Z,5.31
2022-12-03T07:54:22.173Z,6.23
2022-12-03T07:56:50.171Z,6.22
2022-12-03T07:59:18.019Z,5.07
2022-12-03T08:01:45.816Z,5.27
2022-12-03T08:04:18.222Z,5.56
2022-12-03T08:06:46.166Z,6.20
2022-12-03T08:09:16.208Z,6.20
2022-12-03T08:11:45.124Z,6.22
2022-12-03T08:14:13.646Z,6.21
2022-12-03T08:16:42.080Z,6.01
2022-12-03T08:19:10.572Z,6.40
2022-12-03T08:21:39.826Z,6.38
2022-12-03T08:24:14.253Z,6.38
2022-12-03T08:26:41.933Z,6.39
2022-12-03T08:29:10.393Z,6.45
2022-12-03T08:31:38.427Z,6.50
2022-12-03T08:34:19.793Z,6.55
2022-12-03T08:36:49.272Z,6.57
2022-12-03T08:39:30.065Z,6.60
2022-12-03T08:42:16.922Z,6.68
2022-12-03T08:44:44.541Z,6.69
2022-12-03T08:47:14.840Z,6.76
2022-12-03T08:49:42.617Z,6.80
2022-12-03T08:52:16.217Z,6.49
2022-12-03T08:54:43.881Z,6.89
2022-12-03T08:57:26.461Z,6.87
2022-12-03T08:59:55.336Z,7.00
2022-12-03T09:02:27.265Z,7.08
2022-12-03T09:04:55.152Z,7.12
2022-12-03T09:07:24.339Z,7.14
2022-12-03T09:09:52.084Z,7.10
2022-12-03T09:12:19.813Z,7.11
2022-12-03T09:14:47.583Z,7.03
2022-12-03T09:17:15.212Z,7.13
2022-12-03T09:19:46.306Z,7.15
2022-12-03T09:22:15.263Z,7.20
2022-12-03T09:24:44.684Z,7.18
2022-12-03T09:27:12.517Z,7.23
2022-12-03T09:29:40.494Z,7.30
2022-12-03T09:32:10.532Z,7.32
2022-12-03T09:34:40.309Z,7.38
2022-12-03T09:37:08.146Z,7.40
2022-12-03T09:39:35.966Z,7.45
2022-12-03T09:42:05.557Z,7.52
2022-12-03T09:44:34.139Z,7.23
2022-12-03T09:47:01.901Z,7.21
2022-12-03T09:49:29.770Z,7.62
2022-12-03T09:51:57.909Z,7.57
2022-12-03T09:54:26.791Z,7.56
2022-12-03T09:56:54.824Z,7.55
2022-12-03T09:59:24.106Z,7.36
2022-12-03T10:01:52.634Z,7.60
2022-12-03T10:04:20.391Z,7.66
2022-12-03T10:06:48.222Z,7.74
2022-12-03T10:09:17.712Z,7.74
2022-12-03T10:11:45.406Z,7.76
2022-12-03T10:14:13.391Z,7.81
2022-12-03T10:16:42.711Z,7.85
2022-12-03T10:19:10.746Z,7.87
2022-12-03T10:21:39.158Z,7.87
2022-12-03T10:24:25.465Z,7.93
2022-12-03T10:26:54.032Z,7.95
2022-12-03T10:29:24.710Z,7.52
2022-12-03T10:31:59.967Z,7.86
2022-12-03T10:34:30.670Z,7.81
2022-12-03T10:37:12.076Z,7.71
2022-12-03T10:40:00.960Z,7.80
2022-12-03T10:42:29.671Z,7.63
2022-12-03T10:45:20.959Z,7.81
2022-12-03T10:48:13.143Z,7.75
2022-12-03T10:50:48.268Z,7.76
2022-12-03T10:53:16.283Z,7.76
2022-12-03T10:55:44.832Z,7.57
2022-12-03T10:58:21.012Z,7.59
2022-12-03T11:00:49.342Z,7.19
2022-12-03T11:03:22.002Z,7.65
2022-12-03T11:05:49.860Z,7.56
2022-12-03T11:08:19.286Z,7.52
2022-12-03T11:10:47.193Z,7.52
2022-12-03T11:13:51.777Z,7.50
2022-12-03T11:17:06.956Z,7.50
2022-12-03T11:19:48.899Z,7.52
2022-12-03T11:22:45.277Z,7.53
2022-12-03T11:25:37.002Z,7.51
2022-12-03T11:28:32.137Z,7.57
2022-12-03T11:31:02.157Z,7.57
2022-12-03T11:33:30.264Z,7.34
2022-12-03T11:36:31.703Z,7.65
2022-12-03T11:39:04.358Z,7.66
2022-12-03T11:41:33.398Z,7.67
2022-12-03T11:44:32.056Z,7.64
2022-12-03T11:47:02.138Z,7.67
2022-12-03T11:49:35.769Z,7.62
2022-12-03T11:52:13.187Z,7.71
2022-12-03T11:54:40.789Z,7.74
2022-12-03T11:57:26.246Z,7.75
2022-12-03T12:00:01.165Z,7.83
2022-12-03T12:02:29.038Z,7.81
2022-12-03T12:04:57.200Z,7.83
2022-12-03T12:07:38.622Z,7.83
2022-12-03T12:10:07.307Z,7.82
2022-12-03T12:12:38.925Z,7.64
2022-12-03T12:15:34.251Z,7.83
2022-12-03T12:18:35.292Z,7.92
2022-12-03T12:21:41.017Z,7.97
2022-12-03T12:24:32.647Z,7.99
2022-12-03T12:27:01.513Z,8.01
2022-12-03T12:29:29.278Z,8.08
2022-12-03T12:32:03.610Z,8.06
2022-12-03T12:34:31.355Z,8.10
2022-12-03T12:36:59.519Z,7.88
2022-12-03T12:39:27.408Z,8.12
2022-12-03T12:41:56.519Z,8.04
2022-12-03T12:44:26.357Z,8.02
2022-12-03T12:46:54.775Z,7.89
2022-12-03T12:49:26.789Z,7.90
2022-12-03T12:51:54.950Z,7.88
2022-12-03T12:54:22.824Z,7.89
2022-12-03T12:56:50.899Z,7.56
2022-12-03T12:59:20.991Z,7.90
2022-12-03T13:01:49.480Z,7.85
2022-12-03T13:04:18.542Z,7.85
2022-12-03T13:06:46.434Z,7.83
2022-12-03T13:09:15.959Z,7.78
2022-12-03T13:11:45.861Z,7.72
2022-12-03T13:14:16.499Z,7.70
2022-12-03T13:16:46.213Z,7.64
2022-12-03T13:19:23.713Z,7.44
2022-12-03T13:21:51.954Z,7.63
2022-12-03T13:24:33.674Z,7.63
2022-12-03T13:27:06.191Z,7.68
2022-12-03T13:29:33.852Z,7.71
2022-12-03T13:32:03.588Z,7.70
2022-12-03T13:34:33.430Z,7.72
2022-12-03T13:37:01.531Z,7.74
2022-12-03T13:39:32.096Z,7.50
2022-12-03T13:42:19.798Z,7.55
2022-12-03T13:44:48.727Z,6.99
2022-12-03T13:47:20.084Z,7.60
2022-12-03T13:49:52.845Z,6.21
2022-12-03T13:52:21.952Z,6.41
2022-12-03T13:54:51.044Z,7.71
2022-12-03T13:57:18.956Z,7.07
2022-12-03T13:59:48.515Z,7.77
2022-12-03T14:02:18.705Z,5.82
2022-12-03T14:04:47.169Z,6.05
2022-12-03T14:07:20.641Z,7.12
2022-12-03T14:09:49.159Z,6.99
2022-12-03T14:12:33.684Z,6.83
2022-12-03T14:15:01.665Z,6.70
2022-12-03T14:17:30.984Z,6.73
2022-12-03T14:20:00.726Z,5.98
2022-12-03T14:22:28.838Z,6.95
2022-12-03T14:24:57.032Z,7.75
2022-12-03T14:27:25.604Z,7.11
2022-12-03T14:29:54.071Z,5.13
2022-12-03T14:32:23.522Z,6.25
2022-12-03T14:34:53.340Z,6.48
2022-12-03T14:37:21.904Z,6.28
2022-12-03T14:39:53.293Z,6.53
2022-12-03T14:42:21.161Z,6.06
2022-12-03T14:44:50.219Z,7.54
2022-12-03T14:47:22.457Z,7.25
2022-12-03T14:49:52.612Z,5.54
2022-12-03T14:52:20.998Z,6.30
2022-12-03T14:54:49.096Z,7.21
2022-12-03T14:57:17.302Z,5.95
2022-12-03T14:59:46.979Z,5.65
2022-12-03T15:02:15.046Z,6.17
2022-12-03T15:04:45.509Z,7.42
2022-12-03T15:07:14.900Z,4.55
2022-12-03T15:09:45.569Z,5.29
2022-12-03T15:12:13.376Z,4.99
2022-12-03T15:14:41.453Z,5.23
2022-12-03T15:17:10.205Z,7.22
2022-12-03T15:19:37.933Z,5.41
2022-12-03T15:22:05.714Z,6.01
2022-12-03T15:24:36.217Z,7.12
2022-12-03T15:27:04.316Z,5.83
2022-12-03T15:29:33.044Z,5.31
2022-12-03T15:32:03.165Z,5.56
2022-12-03T15:34:31.368Z,5.27
2022-12-03T15:36:59.856Z,5.44
2022-12-03T15:39:30.490Z,5.82
2022-12-03T15:41:59.881Z,6.36
2022-12-03T15:44:29.815Z,4.75
2022-12-03T15:46:58.541Z,6.50
2022-12-03T15:49:26.417Z,6.34
2022-12-03T15:51:55.444Z,4.95
2022-12-03T15:54:24.004Z,6.22
2022-12-03T15:56:57.234Z,6.03
2022-12-03T15:59:27.382Z,5.29
2022-12-03T16:01:58.752Z,5.97
2022-12-03T16:04:27.347Z,6.62
2022-12-03T16:06:59.692Z,4.76
2022-12-03T16:09:30.370Z,5.20
2022-12-03T16:11:58.151Z,4.82
2022-12-03T16:14:27.262Z,5.76
2022-12-03T16:16:55.234Z,6.99
2022-12-03T16:19:24.271Z,6.74
2022-12-03T16:21:55.406Z,5.65
2022-12-03T16:24:23.289Z,6.96
2022-12-03T16:26:51.261Z,6.95
2022-12-03T16:29:19.083Z,6.95
2022-12-03T16:31:48.448Z,6.81
2022-12-03T16:34:16.299Z,6.90
2022-12-03T16:36:45.729Z,6.91
2022-12-03T16:39:13.777Z,6.82
2022-12-03T16:41:41.551Z,6.80
2022-12-03T16:44:09.894Z,6.56
2022-12-03T16:46:37.862Z,6.87
2022-12-03T16:49:07.921Z,6.23
2022-12-03T16:51:37.795Z,6.73
2022-12-03T16:54:05.803Z,6.59
2022-12-03T16:56:33.503Z,6.70
2022-12-03T16:59:01.322Z,6.52
2022-12-03T17:01:29.231Z,6.61
2022-12-03T17:03:57.100Z,6.56
2022-12-03T17:06:26.437Z,6.46
2022-12-03T17:08:55.043Z,6.62
2022-12-03T17:11:22.825Z,6.60
2022-12-03T17:13:50.560Z,6.62
2022-12-03T17:16:18.496Z,6.65
2022-12-03T17:18:46.292Z,6.68
2022-12-03T17:21:13.983Z,6.63
2022-12-03T17:23:44.660Z,6.65
2022-12-03T17:26:13.212Z,6.68
2022-12-03T17:28:41.964Z,6.67
2022-12-03T17:31:09.834Z,6.57
2022-12-03T17:33:37.668Z,6.61
2022-12-03T17:36:05.969Z,6.69
2022-12-03T17:38:38.877Z,6.63
2022-12-03T17:41:08.373Z,6.59
2022-12-03T17:43:36.174Z,6.66
2022-12-03T17:46:05.122Z,6.70
2022-12-03T17:48:33.028Z,6.72
2022-12-03T17:51:01.536Z,6.72
2022-12-03T17:53:29.188Z,6.69
2022-12-03T17:55:56.862Z,6.74
2022-12-03T17:58:35.176Z,6.67
2022-12-03T18:01:03.450Z,6.66
2022-12-03T18:03:31.490Z,6.68
2022-12-03T18:05:59.513Z,6.66
2022-12-03T18:08:27.279Z,6.59
2022-12-03T18:10:54.957Z,6.60
2022-12-03T18:13:22.982Z,6.61
2022-12-03T18:15:52.078Z,6.55
2022-12-03T18:18:19.886Z,6.56
2022-12-03T18:20:47.589Z,6.43
2022-12-03T18:23:15.396Z,6.52
2022-12-03T18:25:43.084Z,6.51
2022-12-03T18:28:10.671Z,6.51
2022-12-03T18:30:38.428Z,6.47
2022-12-03T18:33:07.435Z,6.50
2022-12-03T18:35:35.164Z,6.47
2022-12-03T18:38:02.859Z,6.45
2022-12-03T18:40:30.619Z,6.53
2022-12-03T18:42:58.411Z,6.50
2022-12-03T18:45:26.181Z,6.52
2022-12-03T18:47:54.674Z,6.54
2022-12-03T18:50:23.828Z,6.52
2022-12-03T18:52:51.528Z,6.49
2022-12-03T18:55:51.592Z,6.55
2022-12-03T18:58:19.264Z,6.59
2022-12-03T19:00:47.162Z,6.56
2022-12-03T19:03:14.932Z,6.61
2022-12-03T19:05:44.009Z,6.60
2022-12-03T19:08:14.916Z,6.62
2022-12-03T19:10:42.981Z,6.66
2022-12-03T19:13:10.721Z,6.52
2022-12-03T19:15:38.393Z,6.70
2022-12-03T19:18:07.327Z,6.69
2022-12-03T19:20:35.478Z,6.69
2022-12-03T19:23:04.679Z,6.68
2022-12-03T19:25:32.481Z,6.50
2022-12-03T19:28:00.103Z,6.64
2022-12-03T19:30:27.890Z,6.65
2022-12-03T19:32:55.508Z,6.59
2022-12-03T19:35:24.222Z,6.62
2022-12-03T19:37:51.974Z,6.50
2022-12-03T19:40:22.991Z,6.52
2022-12-03T19:42:50.625Z,6.53
2022-12-03T19:45:19.246Z,6.44
2022-12-03T19:47:47.842Z,6.11
2022-12-03T19:50:22.534Z,6.08
2022-12-03T19:52:51.699Z,6.24
2022-12-03T19:55:21.488Z,6.57
2022-12-03T19:57:51.731Z,5.70
2022-12-03T20:00:20.446Z,4.45
2022-12-03T20:02:50.151Z,6.03
2022-12-03T20:05:18.937Z,6.53
2022-12-03T20:07:47.286Z,4.56
2022-12-03T20:10:15.938Z,6.54
2022-12-03T20:12:44.433Z,4.15
2022-12-03T20:15:14.616Z,5.49
2022-12-03T20:17:43.126Z,5.48
2022-12-03T20:20:12.049Z,6.45
2022-12-03T20:22:40.624Z,6.27
2022-12-03T20:25:09.485Z,6.44
2022-12-03T20:27:37.628Z,5.27
2022-12-03T20:30:08.962Z,6.44
2022-12-03T20:32:42.141Z,5.60
2022-12-03T20:35:13.175Z,5.18
2022-12-03T20:37:41.197Z,4.77
2022-12-03T20:40:11.349Z,4.66
2022-12-03T20:42:40.172Z,5.49
2022-12-03T20:45:09.475Z,6.56
2022-12-03T20:47:39.484Z,4.44
2022-12-03T20:50:08.775Z,4.70
2022-12-03T20:52:37.083Z,3.42
2022-12-03T20:55:07.182Z,5.98
2022-12-03T20:57:38.078Z,6.64
2022-12-03T21:00:09.682Z,5.90
2022-12-03T21:02:40.680Z,4.76
2022-12-03T21:05:13.144Z,5.41
2022-12-03T21:07:41.409Z,5.45
2022-12-03T21:10:31.604Z,4.76
2022-12-03T21:13:01.897Z,5.99
2022-12-03T21:15:30.655Z,5.98
2022-12-03T21:18:01.095Z,5.86
2022-12-03T21:20:29.932Z,5.95
2022-12-03T21:22:58.095Z,6.56
2022-12-03T21:25:26.567Z,4.69
2022-12-03T21:27:54.990Z,6.56
2022-12-03T21:30:22.938Z,6.51
2022-12-03T21:32:50.743Z,6.51
2022-12-03T21:35:20.012Z,6.46
2022-12-03T21:37:47.838Z,6.53
2022-12-03T21:40:16.037Z,6.51
2022-12-03T21:42:44.778Z,6.51
2022-12-03T21:45:12.529Z,6.50
2022-12-03T21:47:42.297Z,6.35
2022-12-03T21:50:11.066Z,6.39
2022-12-03T21:52:41.579Z,5.94
2022-12-03T21:55:10.299Z,6.42
2022-12-03T21:57:38.054Z,6.21
2022-12-03T22:00:07.580Z,6.35
2022-12-03T22:02:36.603Z,6.22
2022-12-03T22:05:04.681Z,6.35
2022-12-03T22:07:33.737Z,6.35
2022-12-03T22:10:02.853Z,6.40
2022-12-03T22:12:30.531Z,6.41
2022-12-03T22:14:59.291Z,6.22
2022-12-03T22:17:27.164Z,6.39
2022-12-03T22:19:55.118Z,6.43
2022-12-03T22:22:23.256Z,6.11
2022-12-03T22:24:52.251Z,6.40
2022-12-03T22:27:21.386Z,6.39
2022-12-03T22:29:49.014Z,6.43
2022-12-03T22:32:16.755Z,6.18
2022-12-03T22:34:44.370Z,6.43
2022-12-03T22:37:12.078Z,6.41
2022-12-03T22:39:39.771Z,6.26
2022-12-03T22:42:07.836Z,6.37
2022-12-03T22:44:36.871Z,6.08
2022-12-03T22:47:05.143Z,6.21
2022-12-03T22:49:32.841Z,6.29
2022-12-03T22:52:00.593Z,6.18
2022-12-03T22:54:28.513Z,6.22
2022-12-03T22:56:56.172Z,6.17
2022-12-03T22:59:23.887Z,6.28
2022-12-03T23:01:52.834Z,6.30
2022-12-03T23:04:20.594Z,6.29
2022-12-03T23:06:48.327Z,6.25
2022-12-03T23:09:16.123Z,6.31
2022-12-03T23:11:44.209Z,6.16
2022-12-03T23:14:11.946Z,6.36
2022-12-03T23:16:40.420Z,6.31
2022-12-03T23:19:09.601Z,6.30
2022-12-03T23:21:37.232Z,6.38
2022-12-03T23:24:05.503Z,6.29
2022-12-03T23:26:35.170Z,6.30
2022-12-03T23:29:02.827Z,6.37
2022-12-03T23:31:46.761Z,6.39
2022-12-03T23:34:15.880Z,6.38
2022-12-03T23:36:43.696Z,6.35
2022-12-03T23:39:11.384Z,6.36
2022-12-03T23:41:39.224Z,6.32
2022-12-03T23:44:10.005Z,6.28
2022-12-03T23:46:39.879Z,6.21
2022-12-03T23:49:07.789Z,6.24
2022-12-03T23:51:36.980Z,6.23
2022-12-03T23:54:04.726Z,6.25
2022-12-03T23:56:32.611Z,6.19
2022-12-03T23:59:00.274Z,6.23
